Time;durP1;ratioP1;P1;durP2;ratioP2;P2;SDS_P1;SDS_P2;PMS_P1;PMS_P2;Temp;Humidity;BMP_temperature;BMP_pressure;BME280_temperature;BME280_humidity;BME280_pressure;Samples;Min_cycle;Max_cycle;Signal;HPM_P1;HPM_P2
2022/05/10 00:01:23;;;;;;;13.20;6.43;;;;;;;;;;4999311;28;20089;-65
2022/05/10 00:03:49;;;;;;;17.25;6.88;;;;;;;;;;5014939;28;20037;-65
2022/05/10 00:06:15;;;;;;;15.80;7.53;;;;;;;;;;5016216;28;20100;-65
2022/05/10 00:08:42;;;;;;;14.75;6.63;;;;;;;;;;4989700;28;20049;-65
2022/05/10 00:11:09;;;;;;;16.60;6.95;;;;;;;;;;5003234;28;20050;-65
2022/05/10 00:13:36;;;;;;;15.52;6.00;;;;;;;;;;5015720;28;20073;-65
2022/05/10 00:16:03;;;;;;;13.27;6.75;;;;;;;;;;5017041;28;20156;-65
2022/05/10 00:18:29;;;;;;;12.70;6.38;;;;;;;;;;5017299;28;20108;-65
2022/05/10 00:20:56;;;;;;;18.08;7.22;;;;;;;;;;5019563;28;20053;-65
2022/05/10 00:23:22;;;;;;;15.85;6.30;;;;;;;;;;5017422;28;20588;-65
2022/05/10 00:25:48;;;;;;;15.57;7.30;;;;;;;;;;5014815;28;20123;-65
2022/05/10 00:28:14;;;;;;;22.17;7.25;;;;;;;;;;5004618;28;20468;-65
2022/05/10 00:30:40;;;;;;;15.52;6.65;;;;;;;;;;5014296;28;20045;-65
2022/05/10 00:33:07;;;;;;;20.23;6.15;;;;;;;;;;5018721;28;20073;-65
2022/05/10 00:35:34;;;;;;;16.60;7.10;;;;;;;;;;5009520;28;20084;-65
2022/05/10 00:38:02;;;;;;;14.80;6.75;;;;;;;;;;5016902;28;20037;-65
2022/05/10 00:40:30;;;;;;;20.20;8.13;;;;;;;;;;5015692;28;20095;-64
2022/05/10 00:43:08;;;;;;;17.35;6.80;;;;;;;;;;5017954;28;20428;-65
2022/05/10 00:45:56;;;;;;;17.40;8.82;;;;;;;;;;5022567;28;20042;-65
2022/05/10 00:48:23;;;;;;;19.05;7.70;;;;;;;;;;5013033;28;20037;-65
2022/05/10 00:50:52;;;;;;;15.95;7.88;;;;;;;;;;5010656;28;20056;-65
2022/05/10 00:53:21;;;;;;;15.35;8.25;;;;;;;;;;5014742;28;20037;-65
2022/05/10 00:55:55;;;;;;;19.60;7.70;;;;;;;;;;5021334;28;20128;-65
2022/05/10 00:58:25;;;;;;;17.55;7.63;;;;;;;;;;5018256;28;20505;-65
2022/05/10 01:00:54;;;;;;;14.63;7.47;;;;;;;;;;4999621;28;20041;-65
2022/05/10 01:03:24;;;;;;;19.77;7.32;;;;;;;;;;5006138;28;20477;-65
2022/05/10 01:05:57;;;;;;;20.60;7.85;;;;;;;;;;5014828;28;20041;-65
2022/05/10 01:08:26;;;;;;;17.65;8.38;;;;;;;;;;5023137;28;20041;-65
2022/05/10 01:10:56;;;;;;;13.23;7.88;;;;;;;;;;4994081;28;20077;-65
2022/05/10 01:13:28;;;;;;;20.77;7.75;;;;;;;;;;5016069;28;20095;-65
2022/05/10 01:16:01;;;;;;;19.52;8.20;;;;;;;;;;5016024;28;20049;-65
2022/05/10 01:18:27;;;;;;;17.13;7.47;;;;;;;;;;5014756;28;20078;-65
2022/05/10 01:20:56;;;;;;;15.90;7.90;;;;;;;;;;5018379;28;20167;-65
2022/05/10 01:23:41;;;;;;;16.13;7.85;;;;;;;;;;5022171;28;20145;-65
2022/05/10 01:26:14;;;;;;;17.35;8.05;;;;;;;;;;5018565;28;20038;-65
2022/05/10 01:28:44;;;;;;;14.52;8.48;;;;;;;;;;5001558;28;20096;-65
2022/05/10 01:31:14;;;;;;;20.60;8.10;;;;;;;;;;4995634;28;20042;-65
2022/05/10 01:33:43;;;;;;;20.08;9.70;;;;;;;;;;5001232;28;20096;-65
2022/05/10 01:36:15;;;;;;;14.65;8.80;;;;;;;;;;5013026;28;20102;-65
2022/05/10 01:38:54;;;;;;;17.65;9.43;;;;;;;;;;5006795;28;20041;-65
2022/05/10 01:41:24;;;;;;;21.92;9.38;;;;;;;;;;5000107;28;20151;-66
2022/05/10 01:43:58;;;;;;;21.98;10.18;;;;;;;;;;5010386;28;20034;-65
2022/05/10 01:46:26;;;;;;;18.70;9.45;;;;;;;;;;4994473;28;20042;-65
2022/05/10 01:48:54;;;;;;;18.75;8.30;;;;;;;;;;5011951;28;20125;-65
2022/05/10 01:51:25;;;;;;;17.05;9.10;;;;;;;;;;5010209;28;20500;-65
2022/05/10 01:53:51;;;;;;;18.25;8.98;;;;;;;;;;5016072;28;20046;-65
2022/05/10 01:56:19;;;;;;;17.52;8.40;;;;;;;;;;5012954;28;20493;-65
2022/05/10 01:58:47;;;;;;;19.48;8.00;;;;;;;;;;5000110;28;20080;-65
2022/05/10 02:01:19;;;;;;;14.95;8.85;;;;;;;;;;5014404;28;20458;-65
2022/05/10 02:03:49;;;;;;;17.55;9.75;;;;;;;;;;5011000;28;20041;-65
2022/05/10 02:06:19;;;;;;;18.83;9.88;;;;;;;;;;4998389;28;20049;-65
2022/05/10 02:08:45;;;;;;;17.67;9.45;;;;;;;;;;5003600;28;20057;-65
2022/05/10 02:11:13;;;;;;;18.48;10.15;;;;;;;;;;5014856;28;20398;-65
2022/05/10 02:13:41;;;;;;;16.13;10.25;;;;;;;;;;5000335;28;20080;-65
2022/05/10 02:16:09;;;;;;;17.08;9.75;;;;;;;;;;5014410;28;20069;-65
2022/05/10 02:18:41;;;;;;;20.35;9.88;;;;;;;;;;4997259;28;20176;-65
2022/05/10 02:21:10;;;;;;;19.95;10.27;;;;;;;;;;4999725;28;20060;-65
2022/05/10 02:23:40;;;;;;;18.05;10.07;;;;;;;;;;5013886;28;20042;-65
2022/05/10 02:26:09;;;;;;;16.23;10.32;;;;;;;;;;5000531;28;20045;-65
2022/05/10 02:28:39;;;;;;;22.15;11.18;;;;;;;;;;5013609;28;20042;-65
2022/05/10 02:31:08;;;;;;;17.15;10.25;;;;;;;;;;5017943;28;20073;-65
2022/05/10 02:33:35;;;;;;;26.20;11.18;;;;;;;;;;5011807;28;20053;-65
2022/05/10 02:36:01;;;;;;;23.33;11.35;;;;;;;;;;5016882;28;20371;-65
2022/05/10 02:38:30;;;;;;;23.98;11.05;;;;;;;;;;5013156;28;20366;-65
2022/05/10 02:40:59;;;;;;;19.30;10.32;;;;;;;;;;5018930;28;20123;-65
2022/05/10 02:43:28;;;;;;;17.98;10.73;;;;;;;;;;5014879;28;20041;-65
2022/05/10 02:45:55;;;;;;;23.27;10.05;;;;;;;;;;5010890;28;21811;-65
2022/05/10 02:48:23;;;;;;;18.80;9.95;;;;;;;;;;5013787;28;20069;-65
2022/05/10 02:50:49;;;;;;;18.10;11.23;;;;;;;;;;4993289;28;20115;-65
2022/05/10 02:53:15;;;;;;;20.35;11.35;;;;;;;;;;5011606;28;20447;-64
2022/05/10 02:55:50;;;;;;;22.58;10.85;;;;;;;;;;5013936;28;20038;-65
2022/05/10 02:58:21;;;;;;;21.17;10.63;;;;;;;;;;5010206;28;20052;-65
2022/05/10 03:00:48;;;;;;;15.68;10.90;;;;;;;;;;5013192;28;20060;-65
2022/05/10 03:03:16;;;;;;;16.65;10.93;;;;;;;;;;5004423;28;20405;-65
2022/05/10 03:05:42;;;;;;;17.73;11.30;;;;;;;;;;5010546;28;20046;-65
2022/05/10 03:08:08;;;;;;;18.73;12.20;;;;;;;;;;5017062;28;20042;-65
2022/05/10 03:10:34;;;;;;;18.73;12.25;;;;;;;;;;5002691;28;20497;-65
2022/05/10 03:13:01;;;;;;;21.98;12.05;;;;;;;;;;5012700;28;20060;-65
2022/05/10 03:15:27;;;;;;;21.90;12.45;;;;;;;;;;5016076;28;21504;-65
2022/05/10 03:17:53;;;;;;;22.08;13.15;;;;;;;;;;5004556;28;20350;-65
2022/05/10 03:20:20;;;;;;;24.52;12.95;;;;;;;;;;5012854;28;20198;-65
2022/05/10 03:22:46;;;;;;;20.63;11.40;;;;;;;;;;5021831;28;20385;-65
2022/05/10 03:25:12;;;;;;;18.80;11.88;;;;;;;;;;4989850;28;20045;-65
2022/05/10 03:27:38;;;;;;;23.83;12.68;;;;;;;;;;5017780;28;20580;-65
2022/05/10 03:30:05;;;;;;;21.88;11.82;;;;;;;;;;5008172;28;20108;-65
2022/05/10 03:32:31;;;;;;;22.88;13.18;;;;;;;;;;5008197;28;20073;-65
2022/05/10 03:34:58;;;;;;;18.20;12.18;;;;;;;;;;4997712;28;20084;-64
2022/05/10 03:37:25;;;;;;;19.05;11.95;;;;;;;;;;5001592;28;20045;-65
2022/05/10 03:39:51;;;;;;;17.77;11.68;;;;;;;;;;5015261;28;20193;-65
2022/05/10 03:42:18;;;;;;;18.85;12.48;;;;;;;;;;5005354;28;20505;-65
2022/05/10 03:44:49;;;;;;;24.77;13.73;;;;;;;;;;5013920;28;20096;-65
2022/05/10 03:47:15;;;;;;;21.25;13.45;;;;;;;;;;5019671;28;20050;-65
2022/05/10 03:49:42;;;;;;;23.13;13.05;;;;;;;;;;5006604;28;20139;-65
2022/05/10 03:52:08;;;;;;;21.42;13.15;;;;;;;;;;4998875;28;20067;-65
2022/05/10 03:54:34;;;;;;;22.25;13.25;;;;;;;;;;5017554;28;21552;-65
2022/05/10 03:57:00;;;;;;;18.38;12.32;;;;;;;;;;5007167;28;20073;-65
2022/05/10 03:59:26;;;;;;;16.88;12.25;;;;;;;;;;5000319;28;20862;-65
2022/05/10 04:01:52;;;;;;;22.70;12.60;;;;;;;;;;5016191;28;20088;-65
2022/05/10 04:04:19;;;;;;;23.73;13.38;;;;;;;;;;5014933;28;20124;-65
2022/05/10 04:06:45;;;;;;;23.90;12.90;;;;;;;;;;5014965;28;20121;-64
2022/05/10 04:09:11;;;;;;;22.00;12.80;;;;;;;;;;4997228;28;20895;-65
2022/05/10 04:11:37;;;;;;;22.67;12.88;;;;;;;;;;5000714;28;20119;-65
2022/05/10 04:14:03;;;;;;;21.98;12.23;;;;;;;;;;5006694;28;20073;-65
2022/05/10 04:16:30;;;;;;;21.17;13.60;;;;;;;;;;5002708;28;20057;-65
2022/05/10 04:18:56;;;;;;;20.05;12.40;;;;;;;;;;5012583;28;20053;-65
2022/05/10 04:21:22;;;;;;;19.45;12.43;;;;;;;;;;5003634;28;20053;-65
2022/05/10 04:23:48;;;;;;;18.40;12.57;;;;;;;;;;5013160;28;20418;-65
2022/05/10 04:26:15;;;;;;;21.55;13.82;;;;;;;;;;5011794;28;20449;-65
2022/05/10 04:28:42;;;;;;;22.50;13.18;;;;;;;;;;5009916;28;20081;-65
2022/05/10 04:31:09;;;;;;;21.50;12.80;;;;;;;;;;5015842;28;20048;-65
2022/05/10 04:33:35;;;;;;;20.58;12.77;;;;;;;;;;5021737;28;20054;-65
2022/05/10 04:36:02;;;;;;;23.25;13.40;;;;;;;;;;5002821;28;20061;-65
2022/05/10 04:38:29;;;;;;;23.60;12.70;;;;;;;;;;5000079;28;20041;-65
2022/05/10 04:43:40;;;;;;;24.58;12.98;;;;;;;;;;5005140;28;20045;-65
2022/05/10 04:46:07;;;;;;;24.98;12.57;;;;;;;;;;5019846;28;20069;-65
2022/05/10 04:48:33;;;;;;;20.98;12.65;;;;;;;;;;5015114;28;20041;-65
2022/05/10 04:51:00;;;;;;;22.05;12.88;;;;;;;;;;5012105;28;20053;-63
2022/05/10 04:53:26;;;;;;;20.63;12.20;;;;;;;;;;5004670;28;20119;-65
2022/05/10 04:55:52;;;;;;;23.67;13.10;;;;;;;;;;5012543;28;20052;-65
2022/05/10 04:58:19;;;;;;;19.08;12.02;;;;;;;;;;5013681;28;20041;-65
2022/05/10 05:00:45;;;;;;;18.85;11.93;;;;;;;;;;5014810;28;20046;-65
2022/05/10 05:03:11;;;;;;;17.23;11.63;;;;;;;;;;5014149;28;20053;-65
2022/05/10 05:05:37;;;;;;;22.17;12.55;;;;;;;;;;5002719;28;20042;-65
2022/05/10 05:08:03;;;;;;;24.35;12.20;;;;;;;;;;5021566;28;20053;-65
2022/05/10 05:10:29;;;;;;;21.10;12.00;;;;;;;;;;5005642;28;20104;-65
2022/05/10 05:12:56;;;;;;;20.67;12.13;;;;;;;;;;5016466;28;20045;-66
2022/05/10 05:15:22;;;;;;;21.23;11.88;;;;;;;;;;5003165;28;20037;-65
2022/05/10 05:17:48;;;;;;;20.17;12.13;;;;;;;;;;5003529;28;20041;-65
2022/05/10 05:20:14;;;;;;;20.23;11.95;;;;;;;;;;5017763;28;20084;-65
2022/05/10 05:22:40;;;;;;;22.23;12.48;;;;;;;;;;5004724;28;20061;-65
2022/05/10 05:25:07;;;;;;;20.60;11.55;;;;;;;;;;5015294;28;20048;-65
2022/05/10 05:27:33;;;;;;;21.58;11.60;;;;;;;;;;5015586;28;20045;-65
2022/05/10 05:29:59;;;;;;;19.02;11.20;;;;;;;;;;5015658;28;20041;-67
2022/05/10 05:32:28;;;;;;;20.15;11.48;;;;;;;;;;5015297;28;20046;-65
2022/05/10 05:34:56;;;;;;;18.25;12.10;;;;;;;;;;5004785;28;20520;-65
2022/05/10 05:37:33;;;;;;;20.52;12.13;;;;;;;;;;5023061;28;20046;-65
2022/05/10 05:39:59;;;;;;;24.45;12.40;;;;;;;;;;5011426;28;20034;-65
2022/05/10 05:42:25;;;;;;;17.90;11.48;;;;;;;;;;5004930;28;20430;-65
2022/05/10 05:44:52;;;;;;;14.68;10.55;;;;;;;;;;5010986;28;20038;-65
2022/05/10 05:47:18;;;;;;;23.55;12.07;;;;;;;;;;4997374;28;20410;-65
2022/05/10 05:49:44;;;;;;;19.88;11.82;;;;;;;;;;5011170;28;20050;-65
2022/05/10 05:52:11;;;;;;;20.00;11.73;;;;;;;;;;5014589;28;20038;-65
2022/05/10 05:54:37;;;;;;;19.50;11.98;;;;;;;;;;5011674;28;20403;-65
2022/05/10 05:57:06;;;;;;;19.05;11.30;;;;;;;;;;5011249;28;20049;-65
2022/05/10 05:59:33;;;;;;;19.75;11.35;;;;;;;;;;5014239;28;20034;-65
2022/05/10 06:01:59;;;;;;;16.83;11.55;;;;;;;;;;5011347;28;20045;-65
2022/05/10 06:04:25;;;;;;;20.02;11.82;;;;;;;;;;4992921;28;20791;-65
2022/05/10 06:06:51;;;;;;;21.17;11.93;;;;;;;;;;5015512;28;20052;-65
2022/05/10 06:09:22;;;;;;;20.52;11.85;;;;;;;;;;5020378;28;20046;-65
2022/05/10 06:11:49;;;;;;;24.77;11.57;;;;;;;;;;5013626;28;20037;-65
2022/05/10 06:14:15;;;;;;;20.85;11.90;;;;;;;;;;5010562;28;20482;-65
2022/05/10 06:16:41;;;;;;;17.63;11.98;;;;;;;;;;4993267;28;20172;-65
2022/05/10 06:19:09;;;;;;;22.65;12.18;;;;;;;;;;5010929;28;20057;-65
2022/05/10 06:21:35;;;;;;;21.23;12.02;;;;;;;;;;5017307;28;20049;-66
2022/05/10 06:24:02;;;;;;;21.85;12.10;;;;;;;;;;5014174;28;20054;-65
2022/05/10 06:26:28;;;;;;;16.67;11.07;;;;;;;;;;5006377;28;20041;-65
2022/05/10 06:28:54;;;;;;;16.65;11.50;;;;;;;;;;5009851;28;20124;-65
2022/05/10 06:31:20;;;;;;;16.20;10.80;;;;;;;;;;5005712;28;20049;-65
2022/05/10 06:33:46;;;;;;;16.63;10.20;;;;;;;;;;5011169;28;20057;-65
2022/05/10 06:36:12;;;;;;;18.20;10.73;;;;;;;;;;5018891;28;20049;-65
2022/05/10 06:38:40;;;;;;;20.95;10.85;;;;;;;;;;5014161;28;20500;-65
2022/05/10 06:41:06;;;;;;;19.25;10.65;;;;;;;;;;5010253;28;20049;-65
2022/05/10 06:43:35;;;;;;;16.30;10.80;;;;;;;;;;5012009;28;20053;-65
2022/05/10 06:46:08;;;;;;;15.80;10.00;;;;;;;;;;4994823;28;20038;-65
2022/05/10 06:48:34;;;;;;;22.48;11.68;;;;;;;;;;5011581;28;20046;-65
2022/05/10 06:51:04;;;;;;;14.27;9.68;;;;;;;;;;5012324;28;20091;-65
2022/05/10 06:53:30;;;;;;;15.05;10.27;;;;;;;;;;5012132;28;20037;-65
2022/05/10 06:55:57;;;;;;;16.52;10.27;;;;;;;;;;5024197;28;20045;-65
2022/05/10 06:58:23;;;;;;;19.58;11.02;;;;;;;;;;5051842;28;20072;-65
2022/05/10 07:00:49;;;;;;;15.55;9.38;;;;;;;;;;5044481;28;20049;-65
2022/05/10 07:03:16;;;;;;;16.83;9.80;;;;;;;;;;5031069;28;20049;-65
2022/05/10 07:05:43;;;;;;;15.05;9.98;;;;;;;;;;5013925;28;20155;-65
2022/05/10 07:08:10;;;;;;;17.35;9.95;;;;;;;;;;5031767;28;20045;-65
2022/05/10 07:10:36;;;;;;;23.05;11.25;;;;;;;;;;5030856;28;20053;-66
2022/05/10 07:13:02;;;;;;;20.63;11.25;;;;;;;;;;4997115;28;20420;-65
2022/05/10 07:15:28;;;;;;;18.38;12.00;;;;;;;;;;5013542;28;20058;-65
2022/05/10 07:17:54;;;;;;;20.77;10.50;;;;;;;;;;5015079;28;20085;-66
2022/05/10 07:20:21;;;;;;;19.48;11.15;;;;;;;;;;5015691;28;20474;-66
2022/05/10 07:22:47;;;;;;;15.55;9.80;;;;;;;;;;4998175;28;20062;-65
2022/05/10 07:25:15;;;;;;;15.95;9.95;;;;;;;;;;4997348;28;20124;-65
2022/05/10 07:27:42;;;;;;;20.50;10.95;;;;;;;;;;4997936;28;20054;-66
2022/05/10 07:30:09;;;;;;;18.50;11.82;;;;;;;;;;5014965;28;20049;-66
2022/05/10 07:32:35;;;;;;;21.05;10.57;;;;;;;;;;5021749;28;20206;-66
2022/05/10 07:35:03;;;;;;;22.08;11.40;;;;;;;;;;5035459;28;20073;-65
2022/05/10 07:37:29;;;;;;;18.83;10.82;;;;;;;;;;5034344;28;20060;-65
2022/05/10 07:39:56;;;;;;;17.20;10.52;;;;;;;;;;5035365;28;20049;-65
2022/05/10 07:42:22;;;;;;;20.33;10.95;;;;;;;;;;5015221;28;20104;-66
2022/05/10 07:44:51;;;;;;;16.70;10.20;;;;;;;;;;5016516;28;20037;-65
2022/05/10 07:47:17;;;;;;;18.20;9.68;;;;;;;;;;5013241;28;20398;-65
2022/05/10 07:49:43;;;;;;;17.25;9.63;;;;;;;;;;5024347;28;20065;-65
2022/05/10 07:52:10;;;;;;;17.55;8.95;;;;;;;;;;5012611;28;20038;-65
2022/05/10 07:54:37;;;;;;;18.85;9.90;;;;;;;;;;5014095;28;20048;-65
2022/05/10 07:57:04;;;;;;;21.35;9.80;;;;;;;;;;4996009;28;20068;-65
2022/05/10 07:59:31;;;;;;;14.27;8.88;;;;;;;;;;5012664;28;20041;-65
2022/05/10 08:01:57;;;;;;;20.35;9.82;;;;;;;;;;5012987;28;20508;-65
2022/05/10 08:04:23;;;;;;;18.30;9.27;;;;;;;;;;5013775;28;20054;-65
2022/05/10 08:06:50;;;;;;;16.63;8.43;;;;;;;;;;5015416;28;20128;-65
2022/05/10 08:09:17;;;;;;;18.55;8.45;;;;;;;;;;5013362;28;20041;-65
2022/05/10 08:11:43;;;;;;;17.35;9.40;;;;;;;;;;5013952;28;20050;-65
2022/05/10 08:14:10;;;;;;;14.13;7.93;;;;;;;;;;5009849;28;20045;-65
2022/05/10 08:16:36;;;;;;;14.52;7.85;;;;;;;;;;5016356;28;20069;-65
2022/05/10 08:19:02;;;;;;;15.90;7.88;;;;;;;;;;5012895;28;20052;-65
2022/05/10 08:21:28;;;;;;;16.17;7.45;;;;;;;;;;5017441;28;20474;-65
2022/05/10 08:23:55;;;;;;;21.42;8.32;;;;;;;;;;5015220;28;20603;-65
2022/05/10 08:26:22;;;;;;;15.75;7.30;;;;;;;;;;5014015;28;20074;-65
2022/05/10 08:28:48;;;;;;;19.75;7.20;;;;;;;;;;5014801;28;20583;-65
2022/05/10 08:31:14;;;;;;;14.15;7.10;;;;;;;;;;5012624;28;20501;-65
2022/05/10 08:33:41;;;;;;;15.20;7.55;;;;;;;;;;5015281;28;20045;-65
2022/05/10 08:36:08;;;;;;;19.45;7.82;;;;;;;;;;5009892;28;20045;-65
2022/05/10 08:38:34;;;;;;;15.55;7.35;;;;;;;;;;5013824;28;20052;-65
2022/05/10 08:41:04;;;;;;;16.00;6.55;;;;;;;;;;5018744;28;20049;-65
2022/05/10 08:43:34;;;;;;;17.25;7.50;;;;;;;;;;5012134;28;20129;-65
2022/05/10 08:46:01;;;;;;;18.35;7.07;;;;;;;;;;4999845;28;20062;-65
2022/05/10 08:48:28;;;;;;;12.77;7.03;;;;;;;;;;5008745;28;20045;-65
2022/05/10 08:50:55;;;;;;;13.80;7.95;;;;;;;;;;5006467;28;20496;-65
2022/05/10 08:53:21;;;;;;;13.82;7.20;;;;;;;;;;5011979;28;20512;-65
2022/05/10 08:55:52;;;;;;;13.48;7.55;;;;;;;;;;5010839;28;20559;-65
2022/05/10 08:58:27;;;;;;;14.40;8.10;;;;;;;;;;5015483;28;20139;-65
2022/05/10 09:00:54;;;;;;;19.88;8.32;;;;;;;;;;5015799;28;20053;-65
2022/05/10 09:03:28;;;;;;;12.25;6.78;;;;;;;;;;5015408;28;20362;-65
2022/05/10 09:05:58;;;;;;;16.63;7.40;;;;;;;;;;5014361;28;20088;-65
2022/05/10 09:08:38;;;;;;;14.80;7.47;;;;;;;;;;5016372;28;20042;-65
2022/05/10 09:11:05;;;;;;;13.88;6.53;;;;;;;;;;5011972;28;20038;-65
2022/05/10 09:13:32;;;;;;;11.70;7.00;;;;;;;;;;5015971;28;20485;-65
2022/05/10 09:16:00;;;;;;;15.18;7.72;;;;;;;;;;5012694;28;20112;-65
2022/05/10 09:18:28;;;;;;;13.73;6.78;;;;;;;;;;5013767;28;20049;-65
2022/05/10 09:20:54;;;;;;;11.40;6.70;;;;;;;;;;5005647;28;20101;-65
2022/05/10 09:23:32;;;;;;;13.07;7.10;;;;;;;;;;5006632;28;20474;-66
2022/05/10 09:25:59;;;;;;;11.73;6.03;;;;;;;;;;5009816;28;20132;-67
2022/05/10 09:28:33;;;;;;;14.80;6.40;;;;;;;;;;5012348;28;20382;-67
2022/05/10 09:36:51;;;;;;;14.82;6.65;;;;;;;;;;4990869;28;20762;-67
2022/05/10 09:39:23;;;;;;;18.50;6.68;;;;;;;;;;4981143;28;20132;-67
2022/05/10 09:41:53;;;;;;;19.00;7.55;;;;;;;;;;4996048;28;20046;-67
2022/05/10 09:44:22;;;;;;;14.23;7.40;;;;;;;;;;4991283;28;20094;-66
2022/05/10 09:46:49;;;;;;;16.75;8.23;;;;;;;;;;4995745;28;20042;-66
2022/05/10 09:49:30;;;;;;;12.90;7.90;;;;;;;;;;4991968;28;20097;-66
2022/05/10 09:51:58;;;;;;;13.88;8.27;;;;;;;;;;4985350;28;20121;-66
2022/05/10 09:54:32;;;;;;;16.35;8.60;;;;;;;;;;4991690;28;20061;-66
2022/05/10 09:56:59;;;;;;;;;;;;;;;;;;4983388;28;20125;-66
2022/05/10 09:59:28;;;;;;;17.23;8.45;;;;;;;;;;4990930;28;19925;-66
2022/05/10 10:01:56;;;;;;;23.15;9.95;;;;;;;;;;4988276;28;20057;-66
2022/05/10 10:04:27;;;;;;;17.45;9.50;;;;;;;;;;4991242;28;20034;-66
2022/05/10 10:07:06;;;;;;;20.33;10.57;;;;;;;;;;4994496;28;20056;-66
2022/05/10 10:09:33;;;;;;;13.55;9.15;;;;;;;;;;4991034;28;20038;-66
2022/05/10 10:12:01;;;;;;;15.50;9.13;;;;;;;;;;4980836;28;20054;-66
2022/05/10 10:14:34;;;;;;;18.17;10.02;;;;;;;;;;4994689;28;20041;-66
2022/05/10 10:17:02;;;;;;;16.73;9.77;;;;;;;;;;4990114;28;20058;-66
2022/05/10 10:19:43;;;;;;;14.25;9.60;;;;;;;;;;4994187;28;20394;-66
2022/05/10 10:22:15;;;;;;;17.40;9.90;;;;;;;;;;4994558;28;20061;-66
2022/05/10 10:24:47;;;;;;;16.20;9.15;;;;;;;;;;4991039;28;20046;-66
2022/05/10 10:27:21;;;;;;;15.35;9.93;;;;;;;;;;4990657;28;20053;-67
2022/05/10 10:29:51;;;;;;;17.10;10.13;;;;;;;;;;4991004;28;20483;-66
2022/05/10 10:32:23;;;;;;;18.50;9.77;;;;;;;;;;4988107;28;20065;-66
2022/05/10 10:34:55;;;;;;;17.25;10.00;;;;;;;;;;5014199;28;20053;-66
2022/05/10 10:37:26;;;;;;;17.83;9.80;;;;;;;;;;5013861;28;20444;-65
2022/05/10 10:40:00;;;;;;;16.88;10.77;;;;;;;;;;5011807;28;20041;-65
2022/05/10 10:42:32;;;;;;;15.18;10.02;;;;;;;;;;5007874;28;20041;-65
2022/05/10 10:45:00;;;;;;;20.70;9.95;;;;;;;;;;5016959;28;20050;-65
2022/05/10 10:47:33;;;;;;;16.50;10.55;;;;;;;;;;5014216;28;20100;-65
2022/05/10 10:50:10;;;;;;;15.85;10.60;;;;;;;;;;5021067;28;20049;-65
2022/05/10 10:52:36;;;;;;;15.00;10.85;;;;;;;;;;5016017;28;20144;-65
2022/05/10 10:55:04;;;;;;;18.17;9.68;;;;;;;;;;5013187;28;20053;-65
2022/05/10 10:57:42;;;;;;;17.08;9.73;;;;;;;;;;5016257;28;20038;-65
2022/05/10 11:00:10;;;;;;;19.55;10.13;;;;;;;;;;5014848;28;20390;-65
2022/05/10 11:02:54;;;;;;;17.25;10.30;;;;;;;;;;5017193;28;20041;-65
2022/05/10 11:05:32;;;;;;;14.27;9.80;;;;;;;;;;5012233;28;20057;-65
2022/05/10 11:08:12;;;;;;;16.38;8.93;;;;;;;;;;5014413;28;20049;-65
2022/05/10 11:10:43;;;;;;;13.60;6.90;;;;;;;;;;5005130;28;20097;-65
2022/05/10 11:13:28;;;;;;;13.20;6.30;;;;;;;;;;5017941;28;20056;-65
2022/05/10 11:16:06;;;;;;;15.43;6.18;;;;;;;;;;5017701;28;20046;-65
2022/05/10 11:18:42;;;;;;;14.98;6.35;;;;;;;;;;5014186;28;20038;-65
2022/05/10 11:21:19;;;;;;;17.13;6.07;;;;;;;;;;5014157;28;20045;-65
2022/05/10 11:23:45;;;;;;;16.73;5.85;;;;;;;;;;5013789;28;20481;-65
2022/05/10 11:26:11;;;;;;;12.77;5.75;;;;;;;;;;5018118;28;20041;-65
2022/05/10 11:28:46;;;;;;;13.52;6.30;;;;;;;;;;5008141;28;20469;-65
2022/05/10 11:31:32;;;;;;;13.68;5.70;;;;;;;;;;5012965;28;20488;-65
2022/05/10 11:34:17;;;;;;;14.05;5.15;;;;;;;;;;5017410;28;20461;-65
2022/05/10 11:36:44;;;;;;;13.23;5.20;;;;;;;;;;5013121;28;20498;-65
2022/05/10 11:39:11;;;;;;;12.13;4.75;;;;;;;;;;5017937;28;20038;-65
2022/05/10 11:41:54;;;;;;;18.17;5.38;;;;;;;;;;5013348;28;20126;-65
2022/05/10 11:44:30;;;;;;;18.70;4.35;;;;;;;;;;5012979;28;20038;-65
2022/05/10 11:47:17;;;;;;;10.45;3.83;;;;;;;;;;5017308;28;20045;-65
2022/05/10 11:49:56;;;;;;;8.35;3.30;;;;;;;;;;5019703;28;20069;-65
2022/05/10 11:52:29;;;;;;;10.73;3.70;;;;;;;;;;5017130;28;20037;-65
2022/05/10 11:55:13;;;;;;;13.13;3.42;;;;;;;;;;5013706;28;20359;-65
2022/05/10 11:57:42;;;;;;;12.07;3.88;;;;;;;;;;5020352;28;20580;-65
2022/05/10 12:00:27;;;;;;;10.00;3.28;;;;;;;;;;5013199;28;20098;-65
2022/05/10 12:02:53;;;;;;;10.80;3.10;;;;;;;;;;5013853;28;20042;-65
2022/05/10 12:05:23;;;;;;;8.60;3.08;;;;;;;;;;5016496;28;20046;-65
2022/05/10 12:07:50;;;;;;;8.57;3.25;;;;;;;;;;5022586;28;20405;-65
2022/05/10 12:10:23;;;;;;;10.95;2.95;;;;;;;;;;5025835;28;20037;-65
2022/05/10 12:12:53;;;;;;;9.40;2.42;;;;;;;;;;5017949;28;20474;-64
2022/05/10 12:21:19;;;;;;;8.07;2.00;;;;;;;;;;5013351;28;20045;-65
2022/05/10 12:21:19;;;;;;;10.32;1.88;;;;;;;;;;5014296;28;20072;-65
2022/05/10 12:24:05;;;;;;;5.70;1.63;;;;;;;;;;5027459;28;20057;-64
2022/05/10 12:26:32;;;;;;;7.47;2.00;;;;;;;;;;5019596;28;20100;-65
2022/05/10 12:28:58;;;;;;;7.28;1.35;;;;;;;;;;5009964;28;20063;-65
2022/05/10 12:31:26;;;;;;;7.82;1.83;;;;;;;;;;5015419;28;20050;-65
2022/05/10 12:34:06;;;;;;;5.82;1.30;;;;;;;;;;5013447;28;20065;-65
2022/05/10 12:36:35;;;;;;;5.05;1.45;;;;;;;;;;5014536;28;20042;-64
2022/05/10 12:39:21;;;;;;;17.25;2.47;;;;;;;;;;4998078;28;20130;-64
2022/05/10 12:41:48;;;;;;;10.90;1.67;;;;;;;;;;5017259;28;20042;-65
2022/05/10 12:44:29;;;;;;;6.35;1.52;;;;;;;;;;5017806;28;20037;-64
2022/05/10 12:47:15;;;;;;;10.07;1.92;;;;;;;;;;5016003;28;20446;-64
2022/05/10 12:49:56;;;;;;;7.65;1.70;;;;;;;;;;5017829;28;20513;-65
2022/05/10 12:52:27;;;;;;;7.57;2.45;;;;;;;;;;5017055;28;20107;-65
2022/05/10 12:55:01;;;;;;;12.18;2.53;;;;;;;;;;5012695;28;20046;-64
2022/05/10 12:57:33;;;;;;;9.75;3.40;;;;;;;;;;4996851;28;20054;-65
2022/05/10 13:00:07;;;;;;;13.20;3.60;;;;;;;;;;5004029;28;20137;-64
2022/05/10 13:02:34;;;;;;;9.35;3.35;;;;;;;;;;5001545;28;20064;-64
2022/05/10 13:05:05;;;;;;;10.35;4.32;;;;;;;;;;5011918;28;20049;-65
2022/05/10 13:07:43;;;;;;;13.23;3.70;;;;;;;;;;5010436;28;20080;-65
2022/05/10 13:10:11;;;;;;;13.65;3.83;;;;;;;;;;5019139;28;20404;-65
2022/05/10 13:12:40;;;;;;;11.05;3.78;;;;;;;;;;5011004;28;20033;-65
2022/05/10 13:15:13;;;;;;;8.48;3.50;;;;;;;;;;5013350;28;20115;-65
2022/05/10 13:17:43;;;;;;;16.25;3.90;;;;;;;;;;4999684;28;20135;-64
2022/05/10 13:20:12;;;;;;;13.90;3.75;;;;;;;;;;5011367;28;20069;-64
2022/05/10 13:22:38;;;;;;;8.43;3.10;;;;;;;;;;5010242;28;20104;-65
2022/05/10 13:25:06;;;;;;;7.75;3.55;;;;;;;;;;4997396;28;20042;-65
2022/05/10 13:27:35;;;;;;;6.75;3.05;;;;;;;;;;5010288;28;20507;-64
2022/05/10 13:30:07;;;;;;;11.20;3.30;;;;;;;;;;5009420;28;20104;-64
2022/05/10 13:32:37;;;;;;;17.70;3.67;;;;;;;;;;5015016;28;20064;-64
2022/05/10 13:35:10;;;;;;;7.88;3.15;;;;;;;;;;4996774;28;20046;-64
2022/05/10 13:37:38;;;;;;;9.18;3.65;;;;;;;;;;5010631;28;20063;-65
2022/05/10 13:40:09;;;;;;;6.65;3.40;;;;;;;;;;5010053;28;20041;-64
2022/05/10 13:42:40;;;;;;;10.07;3.88;;;;;;;;;;5012852;28;20069;-64
2022/05/10 13:45:06;;;;;;;11.85;3.22;;;;;;;;;;5015969;28;20195;-64
2022/05/10 13:47:33;;;;;;;9.77;3.45;;;;;;;;;;5021596;28;20037;-64
2022/05/10 13:50:00;;;;;;;8.48;3.65;;;;;;;;;;5015560;28;20063;-64
2022/05/10 13:52:34;;;;;;;13.77;3.72;;;;;;;;;;5011954;28;20053;-64
2022/05/10 13:55:02;;;;;;;8.85;3.13;;;;;;;;;;5020312;28;20490;-65
2022/05/10 13:57:30;;;;;;;8.93;3.22;;;;;;;;;;4995083;28;20497;-64
2022/05/10 13:59:58;;;;;;;12.63;3.38;;;;;;;;;;5010269;28;20091;-64
2022/05/10 14:02:25;;;;;;;11.23;3.28;;;;;;;;;;5014895;28;20068;-65
2022/05/10 14:04:52;;;;;;;9.98;3.65;;;;;;;;;;5018081;28;20057;-64
2022/05/10 14:07:21;;;;;;;8.90;3.30;;;;;;;;;;5019839;28;20065;-64
2022/05/10 14:09:48;;;;;;;13.23;3.88;;;;;;;;;;5023205;28;20041;-65
2022/05/10 14:12:15;;;;;;;5.95;3.08;;;;;;;;;;5013990;28;20104;-65
2022/05/10 14:14:42;;;;;;;8.75;2.67;;;;;;;;;;5016367;28;20046;-65
2022/05/10 14:17:08;;;;;;;6.90;3.13;;;;;;;;;;5018345;28;20040;-64
2022/05/10 14:19:36;;;;;;;9.35;2.88;;;;;;;;;;5022265;28;20052;-64
2022/05/10 14:22:05;;;;;;;9.82;3.00;;;;;;;;;;5016951;28;20473;-64
2022/05/10 14:24:32;;;;;;;7.82;4.00;;;;;;;;;;5021596;28;20034;-64
2022/05/10 14:27:14;;;;;;;8.75;2.95;;;;;;;;;;5024777;28;20049;-64
2022/05/10 14:29:43;;;;;;;5.38;2.97;;;;;;;;;;5029219;28;20076;-64
2022/05/10 14:32:12;;;;;;;7.68;3.20;;;;;;;;;;5026029;28;20045;-64
2022/05/10 14:34:44;;;;;;;7.90;2.42;;;;;;;;;;5013896;28;20053;-64
2022/05/10 14:37:11;;;;;;;8.93;2.25;;;;;;;;;;5001553;28;20042;-64
2022/05/10 14:39:37;;;;;;;11.13;2.95;;;;;;;;;;5013214;28;20394;-64
2022/05/10 14:42:05;;;;;;;6.85;1.77;;;;;;;;;;4989467;28;20101;-64
2022/05/10 14:44:43;;;;;;;8.02;1.92;;;;;;;;;;4997916;28;20478;-64
2022/05/10 14:47:23;;;;;;;10.93;2.15;;;;;;;;;;4994145;28;20054;-64
2022/05/10 14:49:50;;;;;;;8.85;2.10;;;;;;;;;;5017295;28;20056;-64